Time;durP1;ratioP1;P1;durP2;ratioP2;P2;SDS_P1;SDS_P2;PMS_P1;PMS_P2;Temp;Humidity;BMP_temperature;BMP_pressure;BME280_temperature;BME280_humidity;BME280_pressure;Samples;Min_cycle;Max_cycle;Signal;HPM_P1;HPM_P2
2021/10/03 00:14:57;;;;;;;28.90;22.38;;;5.10;93.00;;;;;;5077371;28;20040;-84
2021/10/03 00:53:13;;;;;;;29.92;22.35;;;5.00;93.30;;;;;;5977150;23;20025;31
2021/10/03 00:55:40;;;;;;;36.80;22.50;;;5.00;93.30;;;;;;4961858;29;20044;-91
2021/10/03 00:58:08;;;;;;;28.95;21.77;;;5.00;93.30;;;;;;4963896;29;20035;-90
2021/10/03 01:00:34;;;;;;;30.73;22.20;;;5.00;93.30;;;;;;4965194;29;20032;-89
2021/10/03 01:03:02;;;;;;;27.83;21.58;;;5.00;93.30;;;;;;4967482;29;20027;-92
2021/10/03 01:05:28;;;;;;;31.58;22.40;;;5.00;93.40;;;;;;4943726;29;20027;-92
2021/10/03 01:07:55;;;;;;;28.95;21.42;;;5.00;93.40;;;;;;4943779;29;20090;-90
2021/10/03 01:10:24;;;;;;;32.73;23.40;;;4.90;93.40;;;;;;4957542;29;20024;-90
2021/10/03 01:12:57;;;;;;;31.33;23.98;;;4.90;93.50;;;;;;4955825;29;20082;-92
2021/10/03 01:15:25;;;;;;;33.58;21.33;;;4.90;93.80;;;;;;4935595;29;20029;-92
2021/10/03 01:17:52;;;;;;;33.10;21.73;;;4.90;93.50;;;;;;4946351;28;20439;-93
2021/10/03 01:20:18;;;;;;;31.13;23.40;;;4.90;93.50;;;;;;4964012;28;20039;-92
2021/10/03 01:22:45;;;;;;;33.63;20.40;;;4.90;93.50;;;;;;4972301;28;20023;-93
2021/10/03 01:25:11;;;;;;;35.22;22.73;;;4.90;93.50;;;;;;4982833;28;20499;-92
2021/10/03 01:27:38;;;;;;;35.08;23.40;;;4.90;93.50;;;;;;4966160;28;20026;-91
2021/10/03 01:30:07;;;;;;;29.25;22.40;;;4.90;93.50;;;;;;4964402;28;20034;-92
2021/10/03 01:32:32;;;;;;;31.60;22.35;;;4.90;93.60;;;;;;4984940;28;20062;-92
2021/10/03 01:34:58;;;;;;;29.13;22.30;;;4.90;93.60;;;;;;4996821;28;20043;-86
2021/10/03 01:37:25;;;;;;;37.25;23.25;;;4.90;93.60;;;;;;4980630;28;20082;-92
2021/10/03 01:39:51;;;;;;;32.27;22.70;;;4.90;93.60;;;;;;4971451;28;20055;-90
2021/10/03 01:42:17;;;;;;;31.65;21.73;;;4.90;93.70;;;;;;4996096;28;20026;-90
2021/10/03 01:44:46;;;;;;;35.55;22.13;;;4.80;93.70;;;;;;4995499;28;20031;-90
2021/10/03 01:47:12;;;;;;;30.05;23.25;;;4.80;93.80;;;;;;4986842;28;20029;-91
2021/10/03 01:49:38;;;;;;;33.40;23.50;;;4.90;93.80;;;;;;4985600;28;20026;-91
2021/10/03 01:52:04;;;;;;;37.63;24.75;;;4.80;93.80;;;;;;4997783;28;20051;-92
2021/10/03 01:54:30;;;;;;;35.88;24.42;;;4.80;93.90;;;;;;4973754;28;20050;-93
2021/10/03 01:56:55;;;;;;;33.50;23.92;;;4.80;93.90;;;;;;4962296;28;20023;-93
2021/10/03 01:59:21;;;;;;;33.15;24.13;;;4.80;94.00;;;;;;4980722;28;20038;-91
2021/10/03 02:01:47;;;;;;;31.48;23.33;;;4.80;94.10;;;;;;4966538;28;20097;-91
2021/10/03 02:04:18;;;;;;;35.13;24.15;;;4.80;94.10;;;;;;4993009;28;20014;-90
2021/10/03 02:06:49;;;;;;;43.65;23.45;;;4.80;94.20;;;;;;4996947;28;20054;-91
2021/10/03 02:09:18;;;;;;;32.42;22.25;;;4.80;94.30;;;;;;4982972;28;20050;-92
2021/10/03 02:11:54;;;;;;;32.13;23.60;;;4.80;94.40;;;;;;4968536;28;20022;-92
2021/10/03 02:14:26;;;;;;;34.55;24.00;;;4.80;94.40;;;;;;4963870;28;20031;-91
2021/10/03 02:16:55;;;;;;;39.05;23.85;;;4.90;94.40;;;;;;4992579;28;20106;-93
2021/10/03 02:19:24;;;;;;;43.55;24.48;;;4.90;94.30;;;;;;4984447;28;20093;-87
2021/10/03 02:21:52;;;;;;;36.55;24.02;;;4.90;94.40;;;;;;4977739;28;20052;-87
2021/10/03 02:24:18;;;;;;;35.63;23.60;;;4.90;94.40;;;;;;4977676;28;20082;-87
2021/10/03 02:26:44;;;;;;;37.08;24.25;;;4.90;94.40;;;;;;4982784;28;20027;-87
2021/10/03 02:29:10;;;;;;;37.15;24.83;;;4.90;94.40;;;;;;4993298;28;20026;-92
2021/10/03 02:31:36;;;;;;;42.78;25.58;;;4.90;94.40;;;;;;4975179;28;20219;-91
2021/10/03 02:34:02;;;;;;;47.40;26.33;;;4.90;94.40;;;;;;4988150;28;20035;-90
2021/10/03 02:36:28;;;;;;;40.67;27.23;;;4.90;94.40;;;;;;4962186;28;20499;-91
2021/10/03 02:38:55;;;;;;;36.95;26.58;;;4.90;94.50;;;;;;4978768;28;20038;-91
2021/10/03 02:41:23;;;;;;;40.78;26.08;;;4.90;94.50;;;;;;4961130;28;20392;-91
2021/10/03 02:43:52;;;;;;;43.10;28.30;;;4.90;94.50;;;;;;4977481;28;20466;-88
2021/10/03 02:46:20;;;;;;;37.83;26.58;;;4.90;94.50;;;;;;4976318;28;20030;-90
2021/10/03 02:48:51;;;;;;;42.80;26.40;;;4.90;94.50;;;;;;4959878;28;20046;-91
2021/10/03 02:51:22;;;;;;;44.88;26.40;;;4.80;94.50;;;;;;4960496;28;20049;-90
2021/10/03 02:53:49;;;;;;;41.22;26.60;;;4.80;94.60;;;;;;4960800;28;20068;-91
2021/10/03 02:56:16;;;;;;;46.10;26.37;;;4.80;94.60;;;;;;4961083;28;20420;-88
2021/10/03 02:58:42;;;;;;;45.42;28.35;;;4.80;94.70;;;;;;4968878;28;20304;-88
2021/10/03 03:01:08;;;;;;;48.05;28.40;;;4.80;94.80;;;;;;4980527;28;20395;-89
2021/10/03 03:03:35;;;;;;;44.80;28.75;;;4.70;94.80;;;;;;4977808;28;20027;-92
2021/10/03 03:06:06;;;;;;;47.47;27.63;;;4.70;94.90;;;;;;4979638;28;20454;-89
2021/10/03 03:08:33;;;;;;;39.35;27.02;;;4.70;94.90;;;;;;4977319;28;20035;-89
2021/10/03 03:10:59;;;;;;;43.17;27.65;;;4.70;94.90;;;;;;4959825;28;20023;-90
2021/10/03 03:13:26;;;;;;;39.83;25.05;;;4.70;95.00;;;;;;4977214;28;20031;-89
2021/10/03 03:15:52;;;;;;;36.13;25.92;;;4.70;95.00;;;;;;4959853;28;20469;-90
2021/10/03 03:18:18;;;;;;;51.05;29.98;;;4.70;95.10;;;;;;4963037;28;20043;-89
2021/10/03 03:20:44;;;;;;;44.20;30.02;;;4.70;95.10;;;;;;4987073;28;20029;-92
2021/10/03 03:23:10;;;;;;;41.42;28.10;;;4.70;95.00;;;;;;4978779;28;20563;-92
2021/10/03 03:25:36;;;;;;;42.90;30.70;;;4.70;95.00;;;;;;4960569;28;20046;-91
2021/10/03 03:28:04;;;;;;;45.42;27.55;;;4.70;95.10;;;;;;4962454;28;20033;-91
2021/10/03 03:30:30;;;;;;;47.15;27.25;;;4.70;95.10;;;;;;4968352;28;20034;-91
2021/10/03 03:32:56;;;;;;;42.78;28.95;;;4.70;95.00;;;;;;4997170;28;20173;-93
2021/10/03 03:35:22;;;;;;;47.47;29.25;;;4.70;95.40;;;;;;4963558;28;20130;-91
2021/10/03 03:37:48;;;;;;;43.88;30.48;;;4.70;95.10;;;;;;4984927;28;20078;-91
2021/10/03 03:40:18;;;;;;;49.88;31.23;;;4.70;95.20;;;;;;4974616;28;20031;-87
2021/10/03 03:42:45;;;;;;;48.13;31.55;;;4.70;95.20;;;;;;4959247;28;20022;-89
2021/10/03 03:45:11;;;;;;;43.72;30.02;;;4.70;95.20;;;;;;4977338;28;20019;-88
2021/10/03 03:47:39;;;;;;;44.85;29.80;;;4.70;95.20;;;;;;4976487;28;20015;-88
2021/10/03 03:50:05;;;;;;;;;;;4.70;95.30;;;;;;4989938;28;20130;-91
2021/10/03 03:52:31;;;;;;;48.03;29.83;;;4.70;95.10;;;;;;4979672;28;19906;-90
2021/10/03 03:54:57;;;;;;;49.38;31.10;;;4.70;95.30;;;;;;4983016;28;20055;-89
2021/10/03 03:57:23;;;;;;;48.33;29.90;;;4.70;95.40;;;;;;4979109;28;20030;-90
2021/10/03 03:59:49;;;;;;;45.42;30.40;;;4.80;95.40;;;;;;4959895;28;20505;-93
2021/10/03 04:02:18;;;;;;;44.47;29.20;;;4.80;95.40;;;;;;4978384;28;20030;-91
2021/10/03 04:04:44;;;;;;;42.78;29.80;;;4.90;95.40;;;;;;4960369;28;20325;-92
2021/10/03 04:07:10;;;;;;;43.17;31.52;;;4.90;95.30;;;;;;4961523;28;20026;-89
2021/10/03 04:09:36;;;;;;;45.83;29.85;;;4.90;95.20;;;;;;4960391;28;20022;-90
2021/10/03 04:12:03;;;;;;;40.40;28.10;;;4.90;95.20;;;;;;4981470;28;20098;-92
2021/10/03 04:14:28;;;;;;;52.35;31.05;;;5.00;95.10;;;;;;4960266;28;20369;-89
2021/10/03 04:16:54;;;;;;;47.50;30.20;;;5.00;95.00;;;;;;4977781;28;20089;-91
2021/10/03 04:19:20;;;;;;;46.78;30.75;;;5.10;95.00;;;;;;4983033;28;20081;-91
2021/10/03 04:21:46;;;;;;;43.97;30.48;;;5.10;94.90;;;;;;4986471;28;20094;-91
2021/10/03 04:24:12;;;;;;;47.42;31.15;;;5.10;95.10;;;;;;4979949;28;20061;-90
2021/10/03 04:26:39;;;;;;;48.88;31.13;;;5.20;94.80;;;;;;4977381;28;20031;-91
2021/10/03 04:29:06;;;;;;;49.88;30.60;;;5.20;94.80;;;;;;4965397;28;20058;-91
2021/10/03 04:31:32;;;;;;;45.08;30.17;;;5.20;94.70;;;;;;4962737;28;20026;-93
2021/10/03 04:33:57;;;;;;;45.35;30.30;;;5.30;94.60;;;;;;4962204;28;20042;-92
2021/10/03 04:36:25;;;;;;;43.53;29.73;;;5.30;94.60;;;;;;4978360;28;20031;-92
2021/10/03 04:38:55;;;;;;;42.90;27.98;;;5.30;94.50;;;;;;4993375;28;20022;-91
2021/10/03 04:41:21;;;;;;;40.00;28.80;;;5.40;94.50;;;;;;4982757;28;20177;-91
2021/10/03 04:43:47;;;;;;;44.25;29.23;;;5.40;94.40;;;;;;4977589;28;20153;-92
2021/10/03 04:46:13;;;;;;;45.47;28.27;;;5.40;94.30;;;;;;4976715;28;20023;-94
2021/10/03 04:48:39;;;;;;;40.90;28.58;;;5.40;94.20;;;;;;4981957;28;20038;-93
2021/10/03 04:51:05;;;;;;;42.72;27.67;;;5.50;94.10;;;;;;4959860;28;20110;-88
2021/10/03 04:53:31;;;;;;;37.95;25.10;;;5.50;94.00;;;;;;4976977;28;20054;-87
2021/10/03 04:55:57;;;;;;;41.80;26.80;;;5.50;93.90;;;;;;4977399;28;20045;-89
2021/10/03 04:58:23;;;;;;;34.45;24.25;;;5.50;93.80;;;;;;4977991;28;20129;-89
2021/10/03 05:00:51;;;;;;;36.53;24.88;;;5.60;93.60;;;;;;4980021;28;20023;-87
2021/10/03 05:03:18;;;;;;;32.33;21.45;;;5.60;93.60;;;;;;4994922;28;20029;-84
2021/10/03 05:05:44;;;;;;;45.75;23.05;;;5.70;93.30;;;;;;4980173;28;20026;-87
2021/10/03 05:08:12;;;;;;;30.55;21.52;;;5.60;93.10;;;;;;4981143;28;20031;-88
2021/10/03 05:10:39;;;;;;;36.45;24.05;;;5.50;92.70;;;;;;4977468;28;20110;-90
2021/10/03 05:13:05;;;;;;;36.70;22.33;;;5.50;92.70;;;;;;4981175;28;20022;-92
2021/10/03 05:15:31;;;;;;;38.85;25.27;;;5.50;92.70;;;;;;4974569;28;20265;-94
2021/10/03 05:17:57;;;;;;;31.83;20.98;;;5.50;92.80;;;;;;4966057;29;20031;-91
2021/10/03 05:20:23;;;;;;;31.73;20.50;;;5.50;92.60;;;;;;4966164;29;20527;-90
2021/10/03 05:22:49;;;;;;;30.95;21.92;;;5.40;92.50;;;;;;4966204;29;20083;-92
2021/10/03 05:25:16;;;;;;;23.10;16.88;;;5.40;92.60;;;;;;4978394;29;20079;-89
2021/10/03 05:27:44;;;;;;;35.97;23.23;;;5.30;92.60;;;;;;4975588;29;20035;-88
2021/10/03 05:30:10;;;;;;;31.67;20.55;;;5.30;92.70;;;;;;4944730;29;20037;-89
2021/10/03 05:32:36;;;;;;;34.67;22.88;;;5.30;92.70;;;;;;4960848;29;20031;-90
2021/10/03 05:35:03;;;;;;;29.92;22.17;;;5.40;92.80;;;;;;4945128;29;20051;-91
2021/10/03 05:37:29;;;;;;;30.63;21.13;;;5.50;92.70;;;;;;4961897;29;20034;-91
2021/10/03 05:39:55;;;;;;;34.75;22.15;;;5.50;92.50;;;;;;4963480;29;20032;-91
2021/10/03 05:42:21;;;;;;;33.65;22.40;;;5.50;92.50;;;;;;4943461;29;20050;-92
2021/10/03 05:44:47;;;;;;;39.30;24.83;;;5.50;92.60;;;;;;4963913;29;20166;-91
2021/10/03 05:47:13;;;;;;;40.17;23.50;;;5.60;92.60;;;;;;4979697;29;20031;-91
2021/10/03 05:49:39;;;;;;;32.40;21.10;;;5.70;92.30;;;;;;4977552;29;20019;-90
2021/10/03 05:52:24;;;;;;;32.72;22.95;;;5.70;92.20;;;;;;4981091;28;20019;-86
2021/10/03 05:55:03;;;;;;;32.92;23.13;;;5.80;92.30;;;;;;4964592;28;20086;-92
2021/10/03 06:00:18;;;;;;;33.30;22.50;;;5.90;92.10;;;;;;5092844;23;20061;-86
2021/10/03 06:02:57;;;;;;;35.50;23.13;;;6.00;91.90;;;;;;4971316;28;20077;-92
2021/10/03 06:05:26;;;;;;;28.80;19.75;;;6.10;91.70;;;;;;5020731;28;20034;-92
2021/10/03 06:07:55;;;;;;;31.40;21.67;;;6.00;91.20;;;;;;4998006;28;20030;-94
2021/10/03 06:10:24;;;;;;;32.03;19.20;;;6.00;90.80;;;;;;5014998;28;20137;-92
2021/10/03 06:12:51;;;;;;;31.92;21.98;;;5.80;90.90;;;;;;5033483;28;20018;-91
2021/10/03 06:15:19;;;;;;;31.58;19.35;;;5.90;91.20;;;;;;5033400;28;20053;-92
2021/10/03 06:17:45;;;;;;;33.08;22.50;;;5.90;91.10;;;;;;4987875;28;20061;-91
2021/10/03 06:20:15;;;;;;;37.67;24.17;;;6.00;91.10;;;;;;5005133;28;20031;-89
2021/10/03 06:22:45;;;;;;;36.40;23.20;;;6.00;91.10;;;;;;5007979;28;20045;-91
2021/10/03 06:25:11;;;;;;;42.33;27.05;;;6.10;91.00;;;;;;5014416;28;20029;-90
2021/10/03 06:27:37;;;;;;;41.83;26.35;;;6.10;91.00;;;;;;5026711;28;20026;-89
2021/10/03 06:30:04;;;;;;;33.63;24.00;;;6.20;91.00;;;;;;5025382;28;20006;-91
2021/10/03 06:32:30;;;;;;;41.92;26.67;;;6.30;90.80;;;;;;5023797;28;20029;-90
2021/10/03 06:35:02;;;;;;;31.20;20.95;;;6.40;90.70;;;;;;5025164;28;20080;-90
2021/10/03 06:37:30;;;;;;;38.50;25.83;;;6.40;90.10;;;;;;5011025;28;20026;-91
2021/10/03 06:39:56;;;;;;;33.65;20.75;;;6.40;90.20;;;;;;5010444;28;20049;-92
2021/10/03 06:42:22;;;;;;;38.28;25.40;;;6.40;89.60;;;;;;5008699;28;20030;-90
2021/10/03 06:44:51;;;;;;;36.53;25.13;;;6.30;90.00;;;;;;5029259;28;20036;-89
2021/10/03 06:47:17;;;;;;;37.70;24.58;;;6.20;89.80;;;;;;5034291;28;20052;-91
2021/10/03 06:49:43;;;;;;;43.22;26.13;;;6.30;90.00;;;;;;5026172;28;20057;-90
2021/10/03 06:52:11;;;;;;;39.70;26.05;;;6.30;89.90;;;;;;5025238;28;20022;-90
2021/10/03 06:54:44;;;;;;;36.80;27.17;;;6.40;90.00;;;;;;5004227;28;20030;-91
2021/10/03 06:57:15;;;;;;;35.38;24.10;;;6.60;90.10;;;;;;5012162;28;20034;-93
2021/10/03 06:59:51;;;;;;;39.22;24.08;;;6.70;89.10;;;;;;4949987;29;20093;-94
2021/10/03 07:02:40;;;;;;;30.23;19.73;;;6.80;88.10;;;;;;4958691;28;20436;-89
2021/10/03 07:05:06;;;;;;;41.67;27.35;;;6.70;86.60;;;;;;4960145;28;20023;-89
2021/10/03 07:07:33;;;;;;;41.13;27.45;;;6.60;87.70;;;;;;4944449;29;20042;-86
2021/10/03 07:10:05;;;;;;;35.47;25.90;;;6.80;88.10;;;;;;4964476;29;20552;-90
2021/10/03 07:12:35;;;;;;;34.42;22.52;;;7.00;87.80;;;;;;4969877;29;20083;-90
2021/10/03 07:15:00;;;;;;;38.10;26.48;;;7.10;86.40;;;;;;4949340;29;20035;-90
2021/10/03 07:17:26;;;;;;;39.45;25.65;;;7.20;86.80;;;;;;4966617;29;20031;-94
2021/10/03 07:19:59;;;;;;;38.40;24.40;;;7.30;86.50;;;;;;4968847;29;20070;-91
2021/10/03 07:22:31;;;;;;;28.05;19.48;;;7.80;87.10;;;;;;4969071;28;20031;-90
2021/10/03 07:24:57;;;;;;;27.73;18.48;;;8.90;82.90;;;;;;4953294;29;20035;-89
2021/10/03 07:27:25;;;;;;;32.70;21.63;;;10.10;77.40;;;;;;4976850;28;20016;-91
2021/10/03 07:29:56;;;;;;;30.40;22.13;;;10.80;75.40;;;;;;4979387;28;20030;-93
2021/10/03 07:32:22;;;;;;;35.38;25.05;;;12.00;71.50;;;;;;4974254;29;20043;-93
2021/10/03 07:34:48;;;;;;;36.67;24.80;;;13.10;69.10;;;;;;4967051;29;20031;-91
2021/10/03 07:37:16;;;;;;;33.33;25.08;;;14.40;65.00;;;;;;4965348;29;20472;-91
2021/10/03 07:39:45;;;;;;;34.50;23.80;;;15.50;61.10;;;;;;4964755;29;20111;-93
2021/10/03 07:42:10;;;;;;;33.55;24.55;;;16.30;58.30;;;;;;4967067;29;20035;-89
2021/10/03 07:44:37;;;;;;;31.83;23.52;;;16.70;56.40;;;;;;4950811;29;20115;-89
2021/10/03 07:47:06;;;;;;;33.90;24.83;;;17.20;54.10;;;;;;4969653;29;20092;-93
2021/10/03 07:49:34;;;;;;;32.63;25.60;;;17.70;52.80;;;;;;4971581;28;20038;-91
2021/10/03 07:52:01;;;;;;;32.15;25.25;;;18.50;50.70;;;;;;5015809;28;20044;-92
2021/10/03 07:54:26;;;;;;;32.25;24.63;;;19.20;49.00;;;;;;5032109;28;20025;-92
2021/10/03 07:56:56;;;;;;;30.25;24.92;;;19.30;47.00;;;;;;5014376;28;20030;-91
2021/10/03 07:59:24;;;;;;;33.83;24.30;;;19.40;46.50;;;;;;5010812;28;20092;-90
2021/10/03 08:01:49;;;;;;;28.92;23.27;;;19.70;46.20;;;;;;5008139;28;20120;-87
2021/10/03 08:04:15;;;;;;;33.60;25.95;;;20.50;45.30;;;;;;5007367;28;20029;-92
2021/10/03 08:06:42;;;;;;;32.20;24.48;;;21.50;43.40;;;;;;5021098;28;20391;-91
2021/10/03 08:09:08;;;;;;;28.10;24.33;;;22.20;41.60;;;;;;5010909;28;20049;-89
2021/10/03 08:11:37;;;;;;;27.33;22.90;;;22.40;40.30;;;;;;5007623;28;20022;-90
2021/10/03 08:14:03;;;;;;;29.95;23.50;;;22.70;40.30;;;;;;4987364;28;20026;-89
2021/10/03 08:16:29;;;;;;;26.42;23.50;;;23.00;39.10;;;;;;4987461;28;20073;-88
2021/10/03 08:18:58;;;;;;;27.73;23.13;;;22.30;38.50;;;;;;4995254;28;20029;-89
2021/10/03 08:21:27;;;;;;;26.38;23.30;;;21.20;40.10;;;;;;5000838;28;20053;-89
2021/10/03 08:23:59;;;;;;;29.70;22.52;;;21.10;40.90;;;;;;5029576;28;20017;-88
2021/10/03 08:26:32;;;;;;;25.65;21.05;;;21.70;40.30;;;;;;5009207;28;20014;-94
2021/10/03 08:29:02;;;;;;;41.90;32.22;;;22.20;39.10;;;;;;4968066;28;20057;-91
2021/10/03 08:31:28;;;;;;;28.65;22.08;;;22.90;38.30;;;;;;4984112;28;20076;-92
2021/10/03 08:33:54;;;;;;;26.25;21.27;;;23.60;37.70;;;;;;4997602;28;20033;-90
2021/10/03 08:36:20;;;;;;;26.50;21.52;;;24.30;36.50;;;;;;5028283;28;20022;-93
2021/10/03 08:38:45;;;;;;;24.73;22.05;;;24.80;35.60;;;;;;5019747;28;20034;-89
2021/10/03 08:41:11;;;;;;;26.33;22.10;;;24.70;35.10;;;;;;5006184;28;20041;-88
2021/10/03 08:43:38;;;;;;;28.90;21.52;;;24.60;35.10;;;;;;5022839;28;20060;-87
2021/10/03 08:46:06;;;;;;;30.40;22.27;;;24.80;35.20;;;;;;5003294;28;20025;-89
2021/10/03 08:48:32;;;;;;;26.88;22.27;;;24.80;34.50;;;;;;4989530;28;20034;-95
2021/10/03 08:51:04;;;;;;;27.52;22.13;;;24.50;34.90;;;;;;5003745;28;20034;-92
2021/10/03 08:53:30;;;;;;;25.15;22.40;;;24.30;35.20;;;;;;5004075;28;20026;-86
2021/10/03 08:55:56;;;;;;;26.73;21.42;;;23.60;35.30;;;;;;5008765;28;20045;-89
2021/10/03 08:58:33;;;;;;;25.38;22.50;;;21.60;37.40;;;;;;5003814;28;20026;-90
2021/10/03 09:01:07;;;;;;;31.25;23.52;;;20.40;39.40;;;;;;5010123;28;20074;-93
2021/10/03 09:03:35;;;;;;;28.63;22.42;;;20.30;41.20;;;;;;5022764;28;20065;-89
2021/10/03 09:06:03;;;;;;;27.95;24.15;;;21.00;39.80;;;;;;5000872;28;20391;-84
2021/10/03 09:08:45;;;;;;;31.77;24.08;;;20.40;40.30;;;;;;5001794;28;20030;-88
2021/10/03 09:11:17;;;;;;;29.02;23.25;;;20.90;40.30;;;;;;5000063;28;20023;-85
2021/10/03 09:13:52;;;;;;;33.42;24.17;;;21.50;39.60;;;;;;5002601;28;20036;-92
2021/10/03 09:17:07;;;;;;;30.13;24.10;;;20.70;39.50;;;;;;5012176;28;20022;-90
2021/10/03 09:20:23;;;;;;;30.23;24.98;;;20.80;40.70;;;;;;4989376;28;20038;-86
2021/10/03 09:23:14;;;;;;;34.20;24.65;;;21.40;40.50;;;;;;5002604;28;20058;-88
2021/10/03 09:25:52;;;;;;;28.80;23.80;;;21.40;39.50;;;;;;5004507;28;20093;-88
2021/10/03 09:28:22;;;;;;;33.13;26.67;;;22.10;39.40;;;;;;5023082;28;20026;-89
2021/10/03 09:30:53;;;;;;;33.95;25.90;;;22.80;37.90;;;;;;5018408;28;20026;-89
2021/10/03 09:33:19;;;;;;;33.83;25.95;;;23.30;37.10;;;;;;5000881;28;20021;-90
2021/10/03 09:35:57;;;;;;;29.30;26.15;;;23.10;37.30;;;;;;5023162;28;20118;-87
2021/10/03 09:38:25;;;;;;;33.05;25.60;;;23.40;37.00;;;;;;5031731;28;20026;-87
2021/10/03 09:41:02;;;;;;;27.90;24.92;;;23.70;36.90;;;;;;5023536;28;20026;-90
2021/10/03 09:43:56;;;;;;;28.67;25.15;;;24.20;36.40;;;;;;5025129;28;20026;-89
2021/10/03 09:46:32;;;;;;;30.27;24.17;;;24.10;36.40;;;;;;5006527;28;20022;-88
2021/10/03 09:48:59;;;;;;;35.53;25.15;;;24.50;35.70;;;;;;5023593;28;20038;-88
2021/10/03 09:51:26;;;;;;;29.42;23.63;;;24.80;35.50;;;;;;5001720;28;20075;-89
2021/10/03 09:53:52;;;;;;;31.30;23.48;;;24.70;34.90;;;;;;5001525;28;20110;-89
2021/10/03 09:56:20;;;;;;;29.48;23.33;;;24.30;35.40;;;;;;4999282;28;20603;-89
2021/10/03 09:58:47;;;;;;;26.90;22.58;;;24.00;34.80;;;;;;4999859;28;20023;-89
2021/10/03 10:01:16;;;;;;;25.77;22.10;;;22.90;36.80;;;;;;4985448;28;20046;-89
2021/10/03 10:03:42;;;;;;;25.05;22.27;;;22.20;37.30;;;;;;4998002;28;20049;-87
2021/10/03 10:06:08;;;;;;;23.80;21.23;;;22.00;38.30;;;;;;5007308;28;20080;-89
2021/10/03 10:08:36;;;;;;;25.48;19.80;;;22.20;38.10;;;;;;4998736;28;20132;-87
2021/10/03 10:11:18;;;;;;;22.25;17.30;;;21.80;37.90;;;;;;5016595;28;20025;-87
2021/10/03 10:13:57;;;;;;;20.90;17.63;;;20.50;39.00;;;;;;5016649;28;20113;-88
2021/10/03 10:16:35;;;;;;;23.27;17.10;;;18.90;42.00;;;;;;5002007;28;20157;-88
2021/10/03 10:19:28;;;;;;;26.17;17.50;;;17.70;44.10;;;;;;5017965;28;20105;-89
2021/10/03 10:22:15;;;;;;;22.02;15.95;;;16.70;45.80;;;;;;5000236;28;20022;-87
2021/10/03 10:24:44;;;;;;;21.35;16.25;;;15.70;48.30;;;;;;5016810;28;20034;-89
2021/10/03 10:27:19;;;;;;;19.42;15.15;;;15.30;49.60;;;;;;5017345;28;20033;-87
2021/10/03 10:29:49;;;;;;;23.45;15.80;;;14.80;51.10;;;;;;5024357;28;20395;-89
2021/10/03 10:32:15;;;;;;;27.10;15.90;;;14.70;51.90;;;;;;5026675;28;20029;-88
2021/10/03 10:35:09;;;;;;;22.90;16.73;;;14.60;52.30;;;;;;5001451;28;20026;-89
2021/10/03 10:37:51;;;;;;;24.27;14.50;;;14.40;52.50;;;;;;4999090;28;20053;-89
2021/10/03 10:40:22;;;;;;;19.98;15.10;;;14.10;53.40;;;;;;5016958;28;20026;-88
2021/10/03 10:42:53;;;;;;;22.40;15.52;;;13.90;54.00;;;;;;5017126;28;20022;-89
2021/10/03 10:45:44;;;;;;;19.42;15.07;;;13.80;54.70;;;;;;5017729;28;20084;-87
2021/10/03 10:48:09;;;;;;;16.10;14.38;;;13.70;54.90;;;;;;5016912;28;20030;-90
2021/10/03 10:50:48;;;;;;;20.05;15.50;;;13.50;55.30;;;;;;5016896;28;20113;-88
2021/10/03 10:53:21;;;;;;;20.88;14.43;;;13.60;55.90;;;;;;5018825;28;20036;-87
2021/10/03 10:56:26;;;;;;;25.17;16.13;;;13.50;56.30;;;;;;5020999;28;20029;-89
2021/10/03 10:58:52;;;;;;;20.98;15.20;;;13.40;56.10;;;;;;4916582;29;20024;-87
2021/10/03 11:01:30;;;;;;;29.70;15.93;;;13.40;56.60;;;;;;4918098;29;20068;-89
2021/10/03 11:03:59;;;;;;;;;;;13.40;57.20;;;;;;4918123;29;20035;-88
2021/10/03 11:06:28;;;;;;;26.70;17.55;;;13.30;56.50;;;;;;4930139;29;19907;-89
2021/10/03 11:08:56;;;;;;;20.25;13.90;;;13.30;57.50;;;;;;4926128;29;20040;-89
2021/10/03 11:11:30;;;;;;;19.63;14.52;;;13.20;57.50;;;;;;4937555;29;20027;-88
2021/10/03 11:14:01;;;;;;;23.83;15.00;;;13.20;57.80;;;;;;4942569;29;20050;-89
2021/10/03 11:16:35;;;;;;;18.65;13.35;;;13.20;58.00;;;;;;4937743;29;20028;-88
2021/10/03 11:19:13;;;;;;;20.92;13.88;;;13.10;58.10;;;;;;4936815;29;20470;-88
2021/10/03 11:22:03;;;;;;;18.65;13.82;;;12.90;59.00;;;;;;4939642;29;20035;-88
2021/10/03 11:24:36;;;;;;;24.85;15.00;;;12.80;59.00;;;;;;4939584;29;20074;-86
2021/10/03 11:27:09;;;;;;;21.88;14.25;;;12.90;59.00;;;;;;4937243;29;20042;-87
2021/10/03 11:29:39;;;;;;;15.57;13.05;;;13.00;58.70;;;;;;4937509;29;20050;-88
2021/10/03 11:32:15;;;;;;;23.05;15.00;;;13.00;58.70;;;;;;4963539;28;20154;-88
2021/10/03 11:34:53;;;;;;;20.45;13.77;;;13.00;59.20;;;;;;5035775;28;20031;-88
2021/10/03 11:37:32;;;;;;;;;;;13.00;58.70;;;;;;5018733;28;20386;-87
2021/10/03 11:40:18;;;;;;;18.25;13.25;;;13.00;58.30;;;;;;5036710;28;19912;-88
2021/10/03 11:42:48;;;;;;;16.73;13.20;;;12.60;59.20;;;;;;5038475;28;20021;-88
2021/10/03 11:45:26;;;;;;;20.35;14.52;;;12.50;60.00;;;;;;5037708;28;20033;-90
2021/10/03 11:47:59;;;;;;;19.50;13.27;;;12.50;60.40;;;;;;5020069;28;20025;-89
2021/10/03 11:50:29;;;;;;;20.30;13.07;;;12.60;60.90;;;;;;5042409;28;20053;-92
2021/10/03 11:53:23;;;;;;;22.58;13.75;;;12.70;60.70;;;;;;5042460;28;20021;-85
2021/10/03 11:56:07;;;;;;;22.38;13.88;;;12.80;60.50;;;;;;5043883;28;20033;-89
2021/10/03 11:58:38;;;;;;;22.83;14.13;;;12.90;59.90;;;;;;5041915;28;20021;-89
2021/10/03 12:01:08;;;;;;;19.38;13.60;;;12.90;59.80;;;;;;5020140;28;20399;-89
2021/10/03 12:03:50;;;;;;;14.88;10.60;;;12.90;59.60;;;;;;4991113;28;20057;-91
2021/10/03 12:06:32;;;;;;;17.75;11.75;;;12.80;59.20;;;;;;5014513;28;20026;-90
2021/10/03 12:09:09;;;;;;;17.42;11.43;;;12.50;59.70;;;;;;5013348;28;20030;-90
2021/10/03 12:11:48;;;;;;;17.55;11.80;;;12.20;60.40;;;;;;5029336;28;20395;-90
2021/10/03 12:14:17;;;;;;;22.65;12.93;;;12.10;61.10;;;;;;5029138;28;20057;-92
2021/10/03 12:16:54;;;;;;;17.75;12.80;;;12.10;61.60;;;;;;5019438;28;20021;-91
2021/10/03 12:19:23;;;;;;;17.45;12.93;;;12.30;61.50;;;;;;5007926;28;20044;-93
2021/10/03 12:22:04;;;;;;;14.10;11.68;;;12.40;61.80;;;;;;5007754;28;20062;-91
2021/10/03 12:24:30;;;;;;;16.25;11.77;;;12.40;61.30;;;;;;5014004;28;20021;-89
2021/10/03 12:26:57;;;;;;;25.02;13.27;;;12.30;60.90;;;;;;5025465;28;20037;-90
2021/10/03 12:29:27;;;;;;;17.97;12.53;;;12.30;61.10;;;;;;5001309;28;20507;-93
2021/10/03 12:31:54;;;;;;;17.40;12.65;;;12.40;61.80;;;;;;4999269;28;20267;-91
2021/10/03 12:34:23;;;;;;;20.23;13.07;;;12.50;61.60;;;;;;4992797;28;20037;-93
2021/10/03 12:36:55;;;;;;;18.30;11.68;;;12.50;60.90;;;;;;5013733;28;20113;-92
2021/10/03 12:39:37;;;;;;;19.58;12.75;;;12.60;60.60;;;;;;5020579;28;20034;-92
2021/10/03 12:42:07;;;;;;;17.35;12.65;;;12.50;61.10;;;;;;5003747;28;20014;-88
2021/10/03 12:44:34;;;;;;;19.20;12.77;;;12.50;60.80;;;;;;5027155;28;20076;-90
2021/10/03 12:47:01;;;;;;;19.85;12.98;;;12.60;60.80;;;;;;5003353;28;20085;-89
2021/10/03 12:49:27;;;;;;;17.05;13.90;;;12.60;60.70;;;;;;5031619;28;20045;-90
2021/10/03 12:51:53;;;;;;;17.48;11.73;;;12.60;60.50;;;;;;5038930;28;20040;-91
2021/10/03 12:54:19;;;;;;;16.45;12.48;;;12.60;60.40;;;;;;5003875;28;20084;-88
2021/10/03 12:56:45;;;;;;;15.02;12.15;;;12.40;61.00;;;;;;5011761;28;20044;-88
2021/10/03 12:59:11;;;;;;;18.13;12.13;;;12.40;61.30;;;;;;5018438;28;20037;-88
2021/10/03 13:01:37;;;;;;;19.25;13.25;;;12.40;60.90;;;;;;5018708;28;20034;-89
2021/10/03 13:04:03;;;;;;;15.55;9.38;;;12.30;61.60;;;;;;5000213;28;20034;-90
2021/10/03 13:06:30;;;;;;;18.92;13.90;;;12.20;61.60;;;;;;5007999;28;20076;-88
2021/10/03 13:08:56;;;;;;;17.13;10.03;;;12.00;62.10;;;;;;4998520;28;20042;-90
2021/10/03 13:11:27;;;;;;;21.25;13.88;;;11.90;62.40;;;;;;5017682;28;20018;-88
2021/10/03 13:13:53;;;;;;;20.13;13.32;;;11.80;63.10;;;;;;5015268;28;20387;-89
2021/10/03 13:16:19;;;;;;;17.42;13.63;;;11.80;63.30;;;;;;5016131;28;20018;-90
2021/10/03 13:18:45;;;;;;;21.95;15.13;;;11.90;63.30;;;;;;4999791;28;20026;-91
2021/10/03 13:21:11;;;;;;;27.02;14.45;;;12.00;63.20;;;;;;5011580;28;20029;-89
2021/10/03 13:23:37;;;;;;;22.08;14.02;;;12.00;63.20;;;;;;5001614;28;20038;-89
2021/10/03 13:26:04;;;;;;;21.83;13.35;;;12.00;63.50;;;;;;5018873;28;20029;-88
2021/10/03 13:28:30;;;;;;;27.60;13.93;;;12.00;63.10;;;;;;5004786;28;20069;-88
2021/10/03 13:30:58;;;;;;;19.92;13.63;;;11.90;63.50;;;;;;5019032;28;20271;-93
2021/10/03 13:33:24;;;;;;;15.73;12.10;;;11.90;63.40;;;;;;5009092;28;20018;-90
2021/10/03 13:35:50;;;;;;;16.15;12.45;;;11.90;63.20;;;;;;4987319;28;20510;-90
2021/10/03 13:38:16;;;;;;;21.17;12.32;;;11.80;63.40;;;;;;5004447;28;20026;-88